sensor_id;sensor_type;location;lat;lon;timestamp;P1;durP1;ratioP1;P2;durP2;ratioP2
9082;SDS011;4577;48.704;9.000;2022-08-19T00:01:34;19.60;;;15.53;;
9082;SDS011;4577;48.704;9.000;2022-08-19T00:04:03;24.60;;;17.20;;
9082;SDS011;4577;48.704;9.000;2022-08-19T00:06:30;19.60;;;16.03;;
9082;SDS011;4577;48.704;9.000;2022-08-19T00:08:57;20.37;;;16.77;;
9082;SDS011;4577;48.704;9.000;2022-08-19T00:11:25;21.77;;;16.23;;
9082;SDS011;4577;48.704;9.000;2022-08-19T00:13:52;21.90;;;17.27;;
9082;SDS011;4577;48.704;9.000;2022-08-19T00:16:18;21.30;;;16.90;;
9082;SDS011;4577;48.704;9.000;2022-08-19T00:18:45;21.63;;;17.47;;
9082;SDS011;4577;48.704;9.000;2022-08-19T00:21:11;20.40;;;16.80;;
9082;SDS011;4577;48.704;9.000;2022-08-19T00:23:37;20.13;;;17.57;;
9082;SDS011;4577;48.704;9.000;2022-08-19T00:26:03;21.67;;;18.13;;
9082;SDS011;4577;48.704;9.000;2022-08-19T00:28:30;24.47;;;18.20;;
9082;SDS011;4577;48.704;9.000;2022-08-19T00:30:58;23.33;;;19.23;;
9082;SDS011;4577;48.704;9.000;2022-08-19T00:33:24;23.60;;;18.20;;
9082;SDS011;4577;48.704;9.000;2022-08-19T00:35:50;22.00;;;19.33;;
9082;SDS011;4577;48.704;9.000;2022-08-19T00:38:15;25.87;;;18.33;;
9082;SDS011;4577;48.704;9.000;2022-08-19T00:40:42;22.20;;;17.70;;
9082;SDS011;4577;48.704;9.000;2022-08-19T00:43:11;25.30;;;18.27;;
9082;SDS011;4577;48.704;9.000;2022-08-19T00:45:40;22.47;;;18.87;;
9082;SDS011;4577;48.704;9.000;2022-08-19T00:48:08;24.00;;;18.37;;
9082;SDS011;4577;48.704;9.000;2022-08-19T00:50:34;22.57;;;18.07;;
9082;SDS011;4577;48.704;9.000;2022-08-19T00:53:01;29.33;;;19.20;;
9082;SDS011;4577;48.704;9.000;2022-08-19T00:55:29;27.83;;;19.73;;
9082;SDS011;4577;48.704;9.000;2022-08-19T00:57:59;27.30;;;18.97;;
9082;SDS011;4577;48.704;9.000;2022-08-19T01:00:30;23.30;;;19.07;;
9082;SDS011;4577;48.704;9.000;2022-08-19T01:02:58;24.50;;;20.10;;
9082;SDS011;4577;48.704;9.000;2022-08-19T01:05:25;24.60;;;19.90;;
9082;SDS011;4577;48.704;9.000;2022-08-19T01:07:54;27.20;;;20.73;;
9082;SDS011;4577;48.704;9.000;2022-08-19T01:10:23;23.60;;;20.10;;
9082;SDS011;4577;48.704;9.000;2022-08-19T01:12:52;30.50;;;20.20;;
9082;SDS011;4577;48.704;9.000;2022-08-19T01:15:20;29.10;;;20.67;;
9082;SDS011;4577;48.704;9.000;2022-08-19T01:17:50;30.33;;;20.67;;
9082;SDS011;4577;48.704;9.000;2022-08-19T01:20:18;25.40;;;20.00;;
9082;SDS011;4577;48.704;9.000;2022-08-19T01:22:46;26.40;;;20.40;;
9082;SDS011;4577;48.704;9.000;2022-08-19T01:25:16;25.83;;;20.73;;
9082;SDS011;4577;48.704;9.000;2022-08-19T01:27:47;26.77;;;21.23;;
9082;SDS011;4577;48.704;9.000;2022-08-19T01:30:19;28.93;;;21.63;;
9082;SDS011;4577;48.704;9.000;2022-08-19T01:32:48;30.23;;;21.50;;
9082;SDS011;4577;48.704;9.000;2022-08-19T01:35:14;27.70;;;21.17;;
9082;SDS011;4577;48.704;9.000;2022-08-19T01:37:53;31.70;;;21.63;;
9082;SDS011;4577;48.704;9.000;2022-08-19T01:40:22;27.13;;;21.10;;
9082;SDS011;4577;48.704;9.000;2022-08-19T01:42:50;30.43;;;20.60;;
9082;SDS011;4577;48.704;9.000;2022-08-19T01:45:16;28.73;;;21.27;;
9082;SDS011;4577;48.704;9.000;2022-08-19T01:47:43;39.67;;;21.73;;
9082;SDS011;4577;48.704;9.000;2022-08-19T01:50:10;29.90;;;22.37;;
9082;SDS011;4577;48.704;9.000;2022-08-19T01:52:40;28.50;;;21.30;;
9082;SDS011;4577;48.704;9.000;2022-08-19T01:55:08;29.40;;;21.50;;
9082;SDS011;4577;48.704;9.000;2022-08-19T01:57:38;38.37;;;22.70;;
9082;SDS011;4577;48.704;9.000;2022-08-19T02:00:08;29.67;;;22.47;;
9082;SDS011;4577;48.704;9.000;2022-08-19T02:02:36;31.10;;;22.63;;
9082;SDS011;4577;48.704;9.000;2022-08-19T02:05:02;32.60;;;23.53;;
9082;SDS011;4577;48.704;9.000;2022-08-19T02:07:28;29.87;;;22.63;;
9082;SDS011;4577;48.704;9.000;2022-08-19T02:09:54;31.10;;;22.60;;
9082;SDS011;4577;48.704;9.000;2022-08-19T02:12:20;32.73;;;23.63;;
9082;SDS011;4577;48.704;9.000;2022-08-19T02:14:46;31.77;;;23.53;;
9082;SDS011;4577;48.704;9.000;2022-08-19T02:17:13;30.50;;;23.23;;
9082;SDS011;4577;48.704;9.000;2022-08-19T02:19:39;31.70;;;23.23;;
9082;SDS011;4577;48.704;9.000;2022-08-19T02:22:05;31.13;;;23.63;;
9082;SDS011;4577;48.704;9.000;2022-08-19T02:24:31;29.67;;;23.97;;
9082;SDS011;4577;48.704;9.000;2022-08-19T02:26:57;29.00;;;23.60;;
9082;SDS011;4577;48.704;9.000;2022-08-19T02:29:23;31.17;;;24.50;;
9082;SDS011;4577;48.704;9.000;2022-08-19T02:31:49;36.93;;;24.40;;
9082;SDS011;4577;48.704;9.000;2022-08-19T02:34:16;34.10;;;24.60;;
9082;SDS011;4577;48.704;9.000;2022-08-19T02:36:42;32.30;;;23.97;;
9082;SDS011;4577;48.704;9.000;2022-08-19T02:39:08;31.87;;;23.83;;
9082;SDS011;4577;48.704;9.000;2022-08-19T02:41:35;37.37;;;24.50;;
9082;SDS011;4577;48.704;9.000;2022-08-19T02:44:02;33.93;;;24.17;;
9082;SDS011;4577;48.704;9.000;2022-08-19T02:46:29;31.17;;;24.13;;
9082;SDS011;4577;48.704;9.000;2022-08-19T02:48:58;31.13;;;23.67;;
9082;SDS011;4577;48.704;9.000;2022-08-19T02:51:34;31.90;;;24.23;;
9082;SDS011;4577;48.704;9.000;2022-08-19T02:54:03;30.73;;;23.67;;
9082;SDS011;4577;48.704;9.000;2022-08-19T02:56:29;31.60;;;25.10;;
9082;SDS011;4577;48.704;9.000;2022-08-19T02:58:56;30.67;;;24.43;;
9082;SDS011;4577;48.704;9.000;2022-08-19T03:01:28;40.27;;;25.20;;
9082;SDS011;4577;48.704;9.000;2022-08-19T03:03:55;35.87;;;25.60;;
9082;SDS011;4577;48.704;9.000;2022-08-19T03:06:22;31.30;;;25.13;;
9082;SDS011;4577;48.704;9.000;2022-08-19T03:08:48;33.43;;;24.80;;
9082;SDS011;4577;48.704;9.000;2022-08-19T03:11:25;34.00;;;25.30;;
9082;SDS011;4577;48.704;9.000;2022-08-19T03:13:54;31.90;;;25.00;;
9082;SDS011;4577;48.704;9.000;2022-08-19T03:16:21;34.30;;;25.13;;
9082;SDS011;4577;48.704;9.000;2022-08-19T03:18:48;32.30;;;26.20;;
9082;SDS011;4577;48.704;9.000;2022-08-19T03:21:16;35.70;;;26.60;;
9082;SDS011;4577;48.704;9.000;2022-08-19T03:23:42;33.57;;;26.60;;
9082;SDS011;4577;48.704;9.000;2022-08-19T03:26:09;38.33;;;27.03;;
9082;SDS011;4577;48.704;9.000;2022-08-19T03:28:35;37.00;;;27.20;;
9082;SDS011;4577;48.704;9.000;2022-08-19T03:31:05;36.50;;;27.27;;
9082;SDS011;4577;48.704;9.000;2022-08-19T03:33:34;35.27;;;27.53;;
9082;SDS011;4577;48.704;9.000;2022-08-19T03:36:02;40.10;;;28.03;;
9082;SDS011;4577;48.704;9.000;2022-08-19T03:38:29;35.07;;;26.90;;
9082;SDS011;4577;48.704;9.000;2022-08-19T03:40:55;38.17;;;27.83;;
9082;SDS011;4577;48.704;9.000;2022-08-19T03:43:21;40.17;;;29.10;;
9082;SDS011;4577;48.704;9.000;2022-08-19T03:45:47;42.43;;;27.10;;
9082;SDS011;4577;48.704;9.000;2022-08-19T03:48:13;38.33;;;27.93;;
9082;SDS011;4577;48.704;9.000;2022-08-19T03:50:41;38.07;;;28.23;;
9082;SDS011;4577;48.704;9.000;2022-08-19T03:53:07;35.90;;;26.70;;
9082;SDS011;4577;48.704;9.000;2022-08-19T03:55:38;44.60;;;28.60;;
9082;SDS011;4577;48.704;9.000;2022-08-19T03:58:05;35.07;;;27.13;;
9082;SDS011;4577;48.704;9.000;2022-08-19T04:00:31;40.70;;;28.87;;
9082;SDS011;4577;48.704;9.000;2022-08-19T04:02:58;37.70;;;27.37;;
9082;SDS011;4577;48.704;9.000;2022-08-19T04:05:26;41.60;;;28.73;;
9082;SDS011;4577;48.704;9.000;2022-08-19T04:07:53;38.20;;;27.90;;
9082;SDS011;4577;48.704;9.000;2022-08-19T04:10:22;36.17;;;28.53;;
9082;SDS011;4577;48.704;9.000;2022-08-19T04:12:49;35.80;;;27.27;;
9082;SDS011;4577;48.704;9.000;2022-08-19T04:15:15;40.30;;;28.07;;
9082;SDS011;4577;48.704;9.000;2022-08-19T04:17:41;51.27;;;31.17;;
9082;SDS011;4577;48.704;9.000;2022-08-19T04:20:07;37.10;;;28.17;;
9082;SDS011;4577;48.704;9.000;2022-08-19T04:22:33;41.40;;;28.57;;
9082;SDS011;4577;48.704;9.000;2022-08-19T04:24:59;38.57;;;28.30;;
9082;SDS011;4577;48.704;9.000;2022-08-19T04:27:25;38.03;;;29.20;;
9082;SDS011;4577;48.704;9.000;2022-08-19T04:29:51;37.00;;;28.73;;
9082;SDS011;4577;48.704;9.000;2022-08-19T04:32:19;39.60;;;29.10;;
9082;SDS011;4577;48.704;9.000;2022-08-19T04:34:45;38.77;;;29.10;;
9082;SDS011;4577;48.704;9.000;2022-08-19T04:37:12;38.13;;;29.27;;
9082;SDS011;4577;48.704;9.000;2022-08-19T04:39:39;39.43;;;29.73;;
9082;SDS011;4577;48.704;9.000;2022-08-19T04:42:23;40.20;;;30.00;;
9082;SDS011;4577;48.704;9.000;2022-08-19T04:45:08;39.67;;;29.17;;
9082;SDS011;4577;48.704;9.000;2022-08-19T04:47:38;47.60;;;30.80;;
9082;SDS011;4577;48.704;9.000;2022-08-19T04:50:08;41.50;;;30.37;;
9082;SDS011;4577;48.704;9.000;2022-08-19T04:52:36;40.90;;;29.50;;
9082;SDS011;4577;48.704;9.000;2022-08-19T04:55:02;45.03;;;30.53;;
9082;SDS011;4577;48.704;9.000;2022-08-19T04:57:31;42.93;;;31.10;;
9082;SDS011;4577;48.704;9.000;2022-08-19T04:59:56;39.23;;;29.67;;
9082;SDS011;4577;48.704;9.000;2022-08-19T05:02:22;42.50;;;30.40;;
9082;SDS011;4577;48.704;9.000;2022-08-19T05:04:49;40.60;;;31.63;;
9082;SDS011;4577;48.704;9.000;2022-08-19T05:07:15;42.30;;;29.70;;
9082;SDS011;4577;48.704;9.000;2022-08-19T05:09:41;40.07;;;30.17;;
9082;SDS011;4577;48.704;9.000;2022-08-19T05:12:07;41.63;;;30.80;;
9082;SDS011;4577;48.704;9.000;2022-08-19T05:14:33;40.73;;;29.50;;
9082;SDS011;4577;48.704;9.000;2022-08-19T05:17:01;41.60;;;30.90;;
9082;SDS011;4577;48.704;9.000;2022-08-19T05:19:27;38.50;;;30.20;;
9082;SDS011;4577;48.704;9.000;2022-08-19T05:22:12;39.43;;;30.77;;
9082;SDS011;4577;48.704;9.000;2022-08-19T05:24:57;43.50;;;31.13;;
9082;SDS011;4577;48.704;9.000;2022-08-19T05:27:23;41.93;;;30.20;;
9082;SDS011;4577;48.704;9.000;2022-08-19T05:29:50;39.77;;;28.93;;
9082;SDS011;4577;48.704;9.000;2022-08-19T05:32:16;37.03;;;29.57;;
9082;SDS011;4577;48.704;9.000;2022-08-19T05:34:41;46.33;;;31.27;;
9082;SDS011;4577;48.704;9.000;2022-08-19T05:37:08;42.20;;;29.50;;
9082;SDS011;4577;48.704;9.000;2022-08-19T05:39:34;36.70;;;29.43;;
9082;SDS011;4577;48.704;9.000;2022-08-19T05:42:06;41.30;;;31.20;;
9082;SDS011;4577;48.704;9.000;2022-08-19T05:44:34;45.33;;;29.87;;
9082;SDS011;4577;48.704;9.000;2022-08-19T05:47:03;38.23;;;28.30;;
9082;SDS011;4577;48.704;9.000;2022-08-19T05:49:30;37.47;;;30.13;;
9082;SDS011;4577;48.704;9.000;2022-08-19T05:51:57;41.63;;;30.30;;
9082;SDS011;4577;48.704;9.000;2022-08-19T05:54:24;46.37;;;29.77;;
9082;SDS011;4577;48.704;9.000;2022-08-19T05:56:51;41.80;;;30.03;;
9082;SDS011;4577;48.704;9.000;2022-08-19T05:59:17;41.53;;;30.67;;
9082;SDS011;4577;48.704;9.000;2022-08-19T06:01:46;44.53;;;29.47;;
9082;SDS011;4577;48.704;9.000;2022-08-19T06:04:18;43.47;;;29.77;;
9082;SDS011;4577;48.704;9.000;2022-08-19T06:06:48;38.50;;;29.87;;
9082;SDS011;4577;48.704;9.000;2022-08-19T06:09:16;39.70;;;30.17;;
9082;SDS011;4577;48.704;9.000;2022-08-19T06:14:25;38.03;;;29.97;;
9082;SDS011;4577;48.704;9.000;2022-08-19T06:16:53;41.47;;;29.17;;
9082;SDS011;4577;48.704;9.000;2022-08-19T06:19:19;42.17;;;29.83;;
9082;SDS011;4577;48.704;9.000;2022-08-19T06:21:48;40.70;;;31.00;;
9082;SDS011;4577;48.704;9.000;2022-08-19T06:24:16;41.30;;;31.03;;
9082;SDS011;4577;48.704;9.000;2022-08-19T06:26:45;40.60;;;30.30;;
9082;SDS011;4577;48.704;9.000;2022-08-19T06:29:14;38.33;;;29.40;;
9082;SDS011;4577;48.704;9.000;2022-08-19T06:31:42;44.27;;;29.80;;
9082;SDS011;4577;48.704;9.000;2022-08-19T06:34:10;36.77;;;29.20;;
9082;SDS011;4577;48.704;9.000;2022-08-19T06:36:37;41.30;;;29.63;;
9082;SDS011;4577;48.704;9.000;2022-08-19T06:39:28;39.43;;;29.67;;
9082;SDS011;4577;48.704;9.000;2022-08-19T06:41:55;36.40;;;28.53;;
9082;SDS011;4577;48.704;9.000;2022-08-19T06:44:23;37.40;;;28.60;;
9082;SDS011;4577;48.704;9.000;2022-08-19T06:46:51;36.27;;;27.60;;
9082;SDS011;4577;48.704;9.000;2022-08-19T06:49:17;38.80;;;28.37;;
9082;SDS011;4577;48.704;9.000;2022-08-19T06:51:47;34.20;;;27.90;;
9082;SDS011;4577;48.704;9.000;2022-08-19T06:54:14;38.30;;;27.63;;
9082;SDS011;4577;48.704;9.000;2022-08-19T06:56:41;35.97;;;27.57;;
9082;SDS011;4577;48.704;9.000;2022-08-19T06:59:13;34.10;;;26.80;;
9082;SDS011;4577;48.704;9.000;2022-08-19T07:01:46;46.63;;;28.23;;
9082;SDS011;4577;48.704;9.000;2022-08-19T07:04:15;35.10;;;26.73;;
9082;SDS011;4577;48.704;9.000;2022-08-19T07:06:42;38.57;;;26.97;;
9082;SDS011;4577;48.704;9.000;2022-08-19T07:09:09;37.60;;;27.80;;
9082;SDS011;4577;48.704;9.000;2022-08-19T07:11:37;38.03;;;27.67;;
9082;SDS011;4577;48.704;9.000;2022-08-19T07:14:04;34.13;;;26.40;;
9082;SDS011;4577;48.704;9.000;2022-08-19T07:16:31;34.00;;;26.50;;
9082;SDS011;4577;48.704;9.000;2022-08-19T07:18:57;33.40;;;26.30;;
9082;SDS011;4577;48.704;9.000;2022-08-19T07:21:25;35.30;;;27.10;;
9082;SDS011;4577;48.704;9.000;2022-08-19T07:23:55;34.73;;;26.80;;
9082;SDS011;4577;48.704;9.000;2022-08-19T07:26:25;33.63;;;25.87;;
9082;SDS011;4577;48.704;9.000;2022-08-19T07:28:53;42.17;;;26.07;;
9082;SDS011;4577;48.704;9.000;2022-08-19T07:31:20;35.90;;;26.07;;
9082;SDS011;4577;48.704;9.000;2022-08-19T07:33:48;38.90;;;26.10;;
9082;SDS011;4577;48.704;9.000;2022-08-19T07:36:17;36.97;;;25.17;;
9082;SDS011;4577;48.704;9.000;2022-08-19T07:38:46;32.10;;;25.47;;
9082;SDS011;4577;48.704;9.000;2022-08-19T07:41:16;31.43;;;24.73;;
9082;SDS011;4577;48.704;9.000;2022-08-19T07:43:44;30.83;;;25.23;;
9082;SDS011;4577;48.704;9.000;2022-08-19T07:46:11;34.13;;;25.10;;
9082;SDS011;4577;48.704;9.000;2022-08-19T07:48:38;31.60;;;24.30;;
9082;SDS011;4577;48.704;9.000;2022-08-19T07:51:06;33.83;;;27.00;;
9082;SDS011;4577;48.704;9.000;2022-08-19T07:53:33;29.93;;;24.77;;
9082;SDS011;4577;48.704;9.000;2022-08-19T07:55:59;37.10;;;24.17;;
9082;SDS011;4577;48.704;9.000;2022-08-19T07:58:29;32.30;;;23.57;;
9082;SDS011;4577;48.704;9.000;2022-08-19T08:00:58;30.37;;;24.27;;
9082;SDS011;4577;48.704;9.000;2022-08-19T08:03:24;28.07;;;22.77;;
9082;SDS011;4577;48.704;9.000;2022-08-19T08:06:10;33.10;;;22.53;;
9082;SDS011;4577;48.704;9.000;2022-08-19T08:08:55;27.60;;;23.17;;
9082;SDS011;4577;48.704;9.000;2022-08-19T08:11:43;28.00;;;22.50;;
9082;SDS011;4577;48.704;9.000;2022-08-19T08:14:14;29.30;;;23.47;;
9082;SDS011;4577;48.704;9.000;2022-08-19T08:16:40;26.83;;;23.40;;
9082;SDS011;4577;48.704;9.000;2022-08-19T08:19:08;30.60;;;24.13;;
9082;SDS011;4577;48.704;9.000;2022-08-19T08:21:35;31.20;;;23.80;;
9082;SDS011;4577;48.704;9.000;2022-08-19T08:24:01;30.77;;;24.60;;
9082;SDS011;4577;48.704;9.000;2022-08-19T08:26:27;27.53;;;23.17;;
9082;SDS011;4577;48.704;9.000;2022-08-19T08:28:53;31.30;;;23.63;;
9082;SDS011;4577;48.704;9.000;2022-08-19T08:31:19;30.33;;;23.33;;
9082;SDS011;4577;48.704;9.000;2022-08-19T08:33:45;28.60;;;23.23;;
9082;SDS011;4577;48.704;9.000;2022-08-19T08:36:12;31.60;;;23.03;;
9082;SDS011;4577;48.704;9.000;2022-08-19T08:38:39;27.00;;;22.00;;
9082;SDS011;4577;48.704;9.000;2022-08-19T08:41:13;26.87;;;22.10;;
9082;SDS011;4577;48.704;9.000;2022-08-19T08:43:44;30.73;;;22.53;;
9082;SDS011;4577;48.704;9.000;2022-08-19T08:46:17;34.60;;;23.13;;
9082;SDS011;4577;48.704;9.000;2022-08-19T08:51:51;32.93;;;22.80;;
9082;SDS011;4577;48.704;9.000;2022-08-19T08:54:19;31.03;;;22.77;;
9082;SDS011;4577;48.704;9.000;2022-08-19T08:56:48;28.00;;;21.67;;
9082;SDS011;4577;48.704;9.000;2022-08-19T08:59:28;29.13;;;21.27;;
9082;SDS011;4577;48.704;9.000;2022-08-19T09:01:57;32.30;;;21.37;;
9082;SDS011;4577;48.704;9.000;2022-08-19T09:04:23;29.50;;;21.80;;
9082;SDS011;4577;48.704;9.000;2022-08-19T09:07:04;33.97;;;21.63;;
9082;SDS011;4577;48.704;9.000;2022-08-19T09:15:11;26.50;;;20.77;;
9082;SDS011;4577;48.704;9.000;2022-08-19T09:17:38;28.43;;;22.27;;
9082;SDS011;4577;48.704;9.000;2022-08-19T09:20:25;30.07;;;21.37;;
9082;SDS011;4577;48.704;9.000;2022-08-19T09:22:50;42.23;;;23.27;;
9082;SDS011;4577;48.704;9.000;2022-08-19T09:25:17;38.37;;;23.37;;
9082;SDS011;4577;48.704;9.000;2022-08-19T09:27:51;31.93;;;23.53;;
9082;SDS011;4577;48.704;9.000;2022-08-19T09:30:25;29.30;;;22.50;;
9082;SDS011;4577;48.704;9.000;2022-08-19T09:32:54;30.67;;;23.20;;
9082;SDS011;4577;48.704;9.000;2022-08-19T09:35:21;41.57;;;23.83;;
9082;SDS011;4577;48.704;9.000;2022-08-19T09:37:48;33.53;;;23.20;;
9082;SDS011;4577;48.704;9.000;2022-08-19T09:40:23;33.00;;;22.67;;
9082;SDS011;4577;48.704;9.000;2022-08-19T09:42:56;28.47;;;22.73;;
9082;SDS011;4577;48.704;9.000;2022-08-19T09:45:27;31.77;;;22.40;;
9082;SDS011;4577;48.704;9.000;2022-08-19T09:47:53;26.23;;;21.20;;
9082;SDS011;4577;48.704;9.000;2022-08-19T09:50:21;30.97;;;22.10;;
9082;SDS011;4577;48.704;9.000;2022-08-19T09:52:51;30.57;;;20.90;;
9082;SDS011;4577;48.704;9.000;2022-08-19T09:55:18;29.37;;;20.87;;
9082;SDS011;4577;48.704;9.000;2022-08-19T09:57:44;26.73;;;21.20;;
9082;SDS011;4577;48.704;9.000;2022-08-19T10:00:10;28.83;;;21.30;;
9082;SDS011;4577;48.704;9.000;2022-08-19T10:02:36;24.27;;;20.47;;
9082;SDS011;4577;48.704;9.000;2022-08-19T10:05:03;24.33;;;20.20;;
9082;SDS011;4577;48.704;9.000;2022-08-19T10:07:47;22.30;;;19.90;;
9082;SDS011;4577;48.704;9.000;2022-08-19T10:10:14;26.13;;;19.40;;
9082;SDS011;4577;48.704;9.000;2022-08-19T10:12:40;26.63;;;19.80;;
9082;SDS011;4577;48.704;9.000;2022-08-19T10:15:07;32.40;;;20.77;;
9082;SDS011;4577;48.704;9.000;2022-08-19T10:17:33;23.07;;;19.40;;
9082;SDS011;4577;48.704;9.000;2022-08-19T10:20:00;26.63;;;19.47;;
9082;SDS011;4577;48.704;9.000;2022-08-19T10:22:27;24.30;;;18.10;;
9082;SDS011;4577;48.704;9.000;2022-08-19T10:24:54;24.30;;;18.70;;
9082;SDS011;4577;48.704;9.000;2022-08-19T10:27:20;23.50;;;19.23;;
9082;SDS011;4577;48.704;9.000;2022-08-19T10:29:46;24.60;;;18.00;;
9082;SDS011;4577;48.704;9.000;2022-08-19T10:32:12;19.83;;;16.50;;
9082;SDS011;4577;48.704;9.000;2022-08-19T10:34:39;22.13;;;16.00;;
9082;SDS011;4577;48.704;9.000;2022-08-19T10:37:05;19.73;;;15.30;;
9082;SDS011;4577;48.704;9.000;2022-08-19T10:39:35;17.90;;;14.83;;
9082;SDS011;4577;48.704;9.000;2022-08-19T10:42:04;17.20;;;13.83;;
9082;SDS011;4577;48.704;9.000;2022-08-19T10:44:31;15.80;;;13.63;;
9082;SDS011;4577;48.704;9.000;2022-08-19T10:46:58;18.23;;;13.50;;
9082;SDS011;4577;48.704;9.000;2022-08-19T10:49:26;14.70;;;13.13;;
9082;SDS011;4577;48.704;9.000;2022-08-19T10:51:52;18.77;;;13.07;;
9082;SDS011;4577;48.704;9.000;2022-08-19T10:54:37;19.60;;;12.40;;
9082;SDS011;4577;48.704;9.000;2022-08-19T10:57:21;19.83;;;13.33;;
9082;SDS011;4577;48.704;9.000;2022-08-19T10:59:54;26.10;;;13.60;;
9082;SDS011;4577;48.704;9.000;2022-08-19T11:02:20;30.57;;;13.50;;
9082;SDS011;4577;48.704;9.000;2022-08-19T11:04:46;17.07;;;12.53;;
9082;SDS011;4577;48.704;9.000;2022-08-19T11:07:14;17.87;;;13.23;;
9082;SDS011;4577;48.704;9.000;2022-08-19T11:09:41;15.97;;;12.87;;
9082;SDS011;4577;48.704;9.000;2022-08-19T11:12:10;16.47;;;13.70;;
9082;SDS011;4577;48.704;9.000;2022-08-19T11:14:40;18.00;;;14.80;;
9082;SDS011;4577;48.704;9.000;2022-08-19T11:17:06;18.80;;;15.40;;
9082;SDS011;4577;48.704;9.000;2022-08-19T11:19:33;16.20;;;14.47;;
9082;SDS011;4577;48.704;9.000;2022-08-19T11:22:00;22.67;;;12.90;;
9082;SDS011;4577;48.704;9.000;2022-08-19T11:24:27;17.57;;;13.00;;
9082;SDS011;4577;48.704;9.000;2022-08-19T11:26:54;18.50;;;13.60;;
9082;SDS011;4577;48.704;9.000;2022-08-19T11:29:25;17.53;;;12.93;;
9082;SDS011;4577;48.704;9.000;2022-08-19T11:31:52;17.70;;;13.57;;
9082;SDS011;4577;48.704;9.000;2022-08-19T11:34:24;15.13;;;12.70;;
9082;SDS011;4577;48.704;9.000;2022-08-19T11:36:52;15.97;;;12.60;;
9082;SDS011;4577;48.704;9.000;2022-08-19T11:39:20;16.70;;;12.70;;
9082;SDS011;4577;48.704;9.000;2022-08-19T11:41:47;18.43;;;12.93;;
9082;SDS011;4577;48.704;9.000;2022-08-19T11:44:13;19.20;;;12.10;;
9082;SDS011;4577;48.704;9.000;2022-08-19T11:46:40;21.27;;;12.20;;
9082;SDS011;4577;48.704;9.000;2022-08-19T11:49:10;12.97;;;11.60;;
9082;SDS011;4577;48.704;9.000;2022-08-19T11:51:36;25.30;;;12.30;;
9082;SDS011;4577;48.704;9.000;2022-08-19T11:54:04;14.87;;;11.30;;
9082;SDS011;4577;48.704;9.000;2022-08-19T11:56:30;17.27;;;11.90;;
9082;SDS011;4577;48.704;9.000;2022-08-19T11:58:56;14.77;;;10.83;;
9082;SDS011;4577;48.704;9.000;2022-08-19T12:01:23;13.33;;;10.70;;
9082;SDS011;4577;48.704;9.000;2022-08-19T12:03:51;17.77;;;10.63;;
9082;SDS011;4577;48.704;9.000;2022-08-19T12:06:23;11.77;;;10.17;;
9082;SDS011;4577;48.704;9.000;2022-08-19T12:08:54;16.00;;;9.97;;
9082;SDS011;4577;48.704;9.000;2022-08-19T12:11:24;11.57;;;10.37;;
9082;SDS011;4577;48.704;9.000;2022-08-19T12:13:50;13.43;;;8.70;;
9082;SDS011;4577;48.704;9.000;2022-08-19T12:16:21;11.17;;;9.03;;
9082;SDS011;4577;48.704;9.000;2022-08-19T12:18:50;9.93;;;8.80;;
9082;SDS011;4577;48.704;9.000;2022-08-19T12:21:17;15.17;;;8.40;;
9082;SDS011;4577;48.704;9.000;2022-08-19T12:23:46;10.13;;;9.13;;
9082;SDS011;4577;48.704;9.000;2022-08-19T12:26:12;9.80;;;8.80;;
9082;SDS011;4577;48.704;9.000;2022-08-19T12:28:38;9.40;;;8.50;;
9082;SDS011;4577;48.704;9.000;2022-08-19T12:31:05;15.67;;;8.97;;
9082;SDS011;4577;48.704;9.000;2022-08-19T12:33:31;12.53;;;8.33;;
9082;SDS011;4577;48.704;9.000;2022-08-19T12:36:02;16.77;;;8.60;;
9082;SDS011;4577;48.704;9.000;2022-08-19T12:38:30;10.10;;;8.97;;
9082;SDS011;4577;48.704;9.000;2022-08-19T12:40:57;10.73;;;8.47;;
9082;SDS011;4577;48.704;9.000;2022-08-19T12:43:23;12.60;;;8.30;;
9082;SDS011;4577;48.704;9.000;2022-08-19T12:45:49;9.03;;;8.13;;
9082;SDS011;4577;48.704;9.000;2022-08-19T12:48:16;14.70;;;11.80;;
9082;SDS011;4577;48.704;9.000;2022-08-19T12:50:44;45.00;;;14.53;;
9082;SDS011;4577;48.704;9.000;2022-08-19T12:53:10;14.27;;;8.50;;
9082;SDS011;4577;48.704;9.000;2022-08-19T12:55:37;12.50;;;8.50;;
9082;SDS011;4577;48.704;9.000;2022-08-19T12:58:03;10.60;;;8.00;;
9082;SDS011;4577;48.704;9.000;2022-08-19T13:00:29;11.90;;;9.80;;
9082;SDS011;4577;48.704;9.000;2022-08-19T13:02:57;36.83;;;14.20;;
9082;SDS011;4577;48.704;9.000;2022-08-19T13:05:25;10.53;;;8.17;;
9082;SDS011;4577;48.704;9.000;2022-08-19T13:07:52;14.07;;;9.30;;
9082;SDS011;4577;48.704;9.000;2022-08-19T13:10:23;14.70;;;9.30;;
9082;SDS011;4577;48.704;9.000;2022-08-19T13:12:53;9.40;;;8.50;;
9082;SDS011;4577;48.704;9.000;2022-08-19T13:15:22;15.83;;;8.20;;
9082;SDS011;4577;48.704;9.000;2022-08-19T13:17:49;9.50;;;8.60;;
9082;SDS011;4577;48.704;9.000;2022-08-19T13:20:16;9.53;;;8.17;;
9082;SDS011;4577;48.704;9.000;2022-08-19T13:22:44;11.80;;;8.47;;
9082;SDS011;4577;48.704;9.000;2022-08-19T13:25:10;8.60;;;7.80;;
9082;SDS011;4577;48.704;9.000;2022-08-19T13:27:37;10.03;;;7.93;;
9082;SDS011;4577;48.704;9.000;2022-08-19T13:30:05;9.60;;;8.50;;
9082;SDS011;4577;48.704;9.000;2022-08-19T13:32:52;8.90;;;8.07;;
9082;SDS011;4577;48.704;9.000;2022-08-19T13:35:37;15.30;;;8.83;;
9082;SDS011;4577;48.704;9.000;2022-08-19T13:38:04;13.10;;;8.30;;
9082;SDS011;4577;48.704;9.000;2022-08-19T13:40:31;8.63;;;7.53;;
9082;SDS011;4577;48.704;9.000;2022-08-19T13:43:01;8.90;;;8.00;;
9082;SDS011;4577;48.704;9.000;2022-08-19T13:45:28;11.17;;;9.97;;
9082;SDS011;4577;48.704;9.000;2022-08-19T13:47:57;11.47;;;9.50;;
9082;SDS011;4577;48.704;9.000;2022-08-19T13:50:27;11.57;;;10.40;;
9082;SDS011;4577;48.704;9.000;2022-08-19T13:52:56;12.67;;;9.70;;
9082;SDS011;4577;48.704;9.000;2022-08-19T13:55:22;26.30;;;10.60;;
9082;SDS011;4577;48.704;9.000;2022-08-19T13:57:52;15.60;;;11.20;;
9082;SDS011;4577;48.704;9.000;2022-08-19T14:00:20;11.77;;;10.57;;
9082;SDS011;4577;48.704;9.000;2022-08-19T14:02:52;13.83;;;10.20;;
9082;SDS011;4577;48.704;9.000;2022-08-19T14:05:23;16.20;;;11.00;;
9082;SDS011;4577;48.704;9.000;2022-08-19T14:07:51;11.00;;;10.00;;
9082;SDS011;4577;48.704;9.000;2022-08-19T14:10:18;12.87;;;10.37;;
9082;SDS011;4577;48.704;9.000;2022-08-19T14:12:44;11.43;;;10.10;;
9082;SDS011;4577;48.704;9.000;2022-08-19T14:15:11;12.33;;;10.53;;
9082;SDS011;4577;48.704;9.000;2022-08-19T14:17:42;18.27;;;11.07;;
9082;SDS011;4577;48.704;9.000;2022-08-19T14:20:10;11.43;;;10.37;;
9082;SDS011;4577;48.704;9.000;2022-08-19T14:22:38;10.57;;;9.60;;
9082;SDS011;4577;48.704;9.000;2022-08-19T14:25:08;25.03;;;10.57;;
9082;SDS011;4577;48.704;9.000;2022-08-19T14:27:37;11.43;;;9.30;;
9082;SDS011;4577;48.704;9.000;2022-08-19T14:30:05;11.07;;;9.67;;
9082;SDS011;4577;48.704;9.000;2022-08-19T14:32:35;12.57;;;9.70;;
9082;SDS011;4577;48.704;9.000;2022-08-19T14:35:02;11.20;;;10.10;;
9082;SDS011;4577;48.704;9.000;2022-08-19T14:37:29;15.33;;;11.17;;
9082;SDS011;4577;48.704;9.000;2022-08-19T14:39:55;10.43;;;9.33;;
9082;SDS011;4577;48.704;9.000;2022-08-19T14:42:21;14.30;;;9.90;;
9082;SDS011;4577;48.704;9.000;2022-08-19T14:44:47;10.23;;;9.23;;
9082;SDS011;4577;48.704;9.000;2022-08-19T14:47:13;10.50;;;9.50;;
9082;SDS011;4577;48.704;9.000;2022-08-19T14:49:39;10.63;;;9.63;;
9082;SDS011;4577;48.704;9.000;2022-08-19T14:52:05;10.27;;;9.23;;
9082;SDS011;4577;48.704;9.000;2022-08-19T14:54:31;11.43;;;10.33;;
9082;SDS011;4577;48.704;9.000;2022-08-19T14:56:58;10.47;;;9.20;;
9082;SDS011;4577;48.704;9.000;2022-08-19T14:59:24;10.37;;;9.27;;
9082;SDS011;4577;48.704;9.000;2022-08-19T15:01:50;11.30;;;9.90;;
9082;SDS011;4577;48.704;9.000;2022-08-19T15:04:16;10.53;;;9.47;;
9082;SDS011;4577;48.704;9.000;2022-08-19T15:06:42;10.77;;;9.77;;
9082;SDS011;4577;48.704;9.000;2022-08-19T15:09:08;10.93;;;9.13;;